EDT,Max TemperatureF,Mean TemperatureF,Min TemperatureF,Max Dew PointF,MeanDew PointF,Min DewpointF,Max Humidity, Mean Humidity, Min Humidity, Max Sea Level PressureIn, Mean Sea Level PressureIn, Min Sea Level PressureIn, Max VisibilityMiles, Mean VisibilityMiles, Min VisibilityMiles, Max Wind SpeedMPH, Mean Wind SpeedMPH, Max Gust SpeedMPH,PrecipitationIn, CloudCover, Events, WindDirDegrees
2013-3-1,66,57,48,46,37,28,87,55,27,30.02,29.97,29.91,10,10,9,14,6,21,0.00,0,,294
2013-3-2,60,50,41,37,30,19,76,50,22,30.06,30.01,29.94,10,10,9,29,9,38,0.00,0,,283
2013-3-3,51,42,33,32,29,27,93,61,38,30.18,30.06,30.01,10,10,8,18,7,25,0.00,2,,292
2013-3-4,64,48,32,39,30,19,93,56,22,30.26,30.19,30.14,10,10,8,13,4,16,0.00,0,,316
2013-3-5,75,57,39,55,41,36,93,56,27,30.21,30.12,30.01,10,10,9,16,5,23,0.00,0,,215
2013-3-6,66,56,46,61,36,23,94,48,21,30.17,30.03,29.92,10,10,5,20,13,29,0.00,1,,282
2013-3-7,66,52,37,45,37,32,93,62,35,30.25,30.19,30.14,10,10,7,10,6,,0.00,0,,327
2013-3-8,71,55,39,46,40,32,93,65,23,30.26,30.21,30.16,10,9,5,13,2,17,0.00,0,,21
2013-3-9,73,58,42,52,46,39,93,69,38,30.27,30.23,30.17,10,9,6,12,2,16,0.00,0,,58
2013-3-10,75,62,48,55,52,46,94,71,47,30.23,30.17,30.13,10,9,8,15,3,23,0.00,1,,93
2013-3-11,77,64,50,61,54,48,94,69,44,30.16,30.04,29.95,10,9,7,16,3,20,0.00,2,,153
2013-3-12,75,68,59,66,62,52,94,82,65,30.05,29.94,29.89,10,8,3,15,9,22,0.00,3,,188
2013-3-13,73,60,46,50,38,27,87,53,18,30.20,30.12,30.05,10,10,7,14,3,20,0.00,0,,330
2013-3-14,62,50,39,39,33,23,81,53,27,30.30,30.24,30.18,10,10,9,15,2,21,0.00,0,,22
2013-3-15,71,54,37,41,35,27,100,58,23,30.32,30.24,30.16,10,9,3,10,1,,0.00,0,,17
2013-3-16,78,60,42,48,40,36,93,52,21,30.21,30.14,30.06,10,10,6,13,2,18,0.00,0,,226
2013-3-17,78,62,46,61,48,37,100,62,29,30.17,30.10,30.03,10,9,0,15,2,20,0.00,1,,193
2013-3-18,78,70,62,64,61,59,94,73,51,30.10,30.01,29.91,10,9,5,14,2,21,0.00,1,,202
2013-3-19,84,72,60,64,59,54,100,69,35,30.07,29.97,29.92,10,9,5,14,1,17,0.00,1,,337
2013-3-20,73,65,57,64,59,55,100,84,65,30.01,29.94,29.83,10,8,1,24,1,29,0.00,4,,6
2013-3-21,69,56,44,55,39,27,100,58,21,30.00,29.93,29.89,10,9,2,14,3,18,0.00,1,,319
2013-3-22,73,58,42,52,44,39,87,61,31,30.05,30.00,29.94,10,10,8,12,2,16,0.00,1,,70
2013-3-23,86,70,55,70,63,52,100,82,51,30.01,29.91,29.79,10,8,2,15,2,26,0.00,3,,218
2013-3-24,80,73,66,72,68,64,100,84,69,29.88,29.71,29.62,10,7,3,24,9,39,0.00,3,,213
2013-3-25,71,63,55,64,41,23,94,49,16,30.05,29.87,29.71,10,9,5,22,8,26,0.00,1,,279
2013-3-26,60,52,44,36,25,14,57,38,16,30.26,30.14,30.06,10,10,10,20,7,29,0.00,0,,305
2013-3-27,62,50,39,37,30,23,76,51,22,30.33,30.28,30.22,10,10,9,12,2,17,0.00,0,,327
2013-3-28,69,53,37,41,35,27,93,57,20,30.32,30.28,30.22,10,10,8,13,2,18,0.00,0,,8
2013-3-29,73,57,41,46,37,30,93,54,20,30.36,30.29,30.23,10,10,2,13,1,,0.00,0,,44
2013-3-30,78,60,42,52,44,37,87,57,28,30.29,30.23,30.14,10,10,9,16,2,23,0.00,1,,200
2013-3-31,82,70,57,54,51,45,88,56,26,30.20,30.11,30.01,10,10,9,16,3,23,0.00,0,,200